sensor_id;sensor_type;location;lat;lon;timestamp;P1;durP1;ratioP1;P2;durP2;ratioP2
77308;SDS011;68708;52.086;5.082;2023-04-01T00:02:07;56.30;;;20.85;;
77308;SDS011;68708;52.086;5.082;2023-04-01T00:04:35;54.92;;;21.60;;
77308;SDS011;68708;52.086;5.082;2023-04-01T00:07:05;62.05;;;23.55;;
77308;SDS011;68708;52.086;5.082;2023-04-01T00:09:33;53.10;;;22.05;;
77308;SDS011;68708;52.086;5.082;2023-04-01T00:12:01;44.97;;;20.33;;
77308;SDS011;68708;52.086;5.082;2023-04-01T00:14:29;48.28;;;19.38;;
77308;SDS011;68708;52.086;5.082;2023-04-01T00:16:57;49.53;;;18.75;;
77308;SDS011;68708;52.086;5.082;2023-04-01T00:19:25;44.67;;;19.08;;
77308;SDS011;68708;52.086;5.082;2023-04-01T00:21:53;39.10;;;17.20;;
77308;SDS011;68708;52.086;5.082;2023-04-01T00:24:22;43.95;;;19.80;;
77308;SDS011;68708;52.086;5.082;2023-04-01T00:26:51;42.30;;;18.48;;
77308;SDS011;68708;52.086;5.082;2023-04-01T00:29:19;38.85;;;20.55;;
77308;SDS011;68708;52.086;5.082;2023-04-01T00:31:47;42.88;;;19.38;;
77308;SDS011;68708;52.086;5.082;2023-04-01T00:34:15;49.70;;;19.98;;
77308;SDS011;68708;52.086;5.082;2023-04-01T00:36:43;49.75;;;22.58;;
77308;SDS011;68708;52.086;5.082;2023-04-01T00:39:11;40.95;;;20.20;;
77308;SDS011;68708;52.086;5.082;2023-04-01T00:41:41;43.88;;;21.20;;
77308;SDS011;68708;52.086;5.082;2023-04-01T00:44:14;40.13;;;20.27;;
77308;SDS011;68708;52.086;5.082;2023-04-01T00:46:44;49.20;;;21.83;;
77308;SDS011;68708;52.086;5.082;2023-04-01T00:49:12;48.70;;;23.30;;
77308;SDS011;68708;52.086;5.082;2023-04-01T00:51:41;38.33;;;20.65;;
77308;SDS011;68708;52.086;5.082;2023-04-01T00:54:12;43.95;;;20.67;;
77308;SDS011;68708;52.086;5.082;2023-04-01T00:56:43;38.35;;;20.88;;
77308;SDS011;68708;52.086;5.082;2023-04-01T00:59:16;42.63;;;18.70;;
77308;SDS011;68708;52.086;5.082;2023-04-01T01:01:47;48.97;;;20.00;;
77308;SDS011;68708;52.086;5.082;2023-04-01T01:04:21;41.92;;;19.73;;
77308;SDS011;68708;52.086;5.082;2023-04-01T01:06:51;44.20;;;19.70;;
77308;SDS011;68708;52.086;5.082;2023-04-01T01:09:36;38.40;;;18.33;;
77308;SDS011;68708;52.086;5.082;2023-04-01T01:12:13;45.88;;;19.20;;
77308;SDS011;68708;52.086;5.082;2023-04-01T01:14:45;41.28;;;18.25;;
77308;SDS011;68708;52.086;5.082;2023-04-01T01:17:23;35.40;;;17.27;;
77308;SDS011;68708;52.086;5.082;2023-04-01T01:23:23;35.17;;;15.00;;
77308;SDS011;68708;52.086;5.082;2023-04-01T01:26:16;35.35;;;15.25;;
77308;SDS011;68708;52.086;5.082;2023-04-01T01:29:04;29.42;;;13.48;;
77308;SDS011;68708;52.086;5.082;2023-04-01T01:31:43;35.30;;;14.82;;
77308;SDS011;68708;52.086;5.082;2023-04-01T01:34:18;33.60;;;13.25;;
77308;SDS011;68708;52.086;5.082;2023-04-01T01:36:53;30.77;;;13.85;;
77308;SDS011;68708;52.086;5.082;2023-04-01T01:39:26;32.00;;;14.15;;
77308;SDS011;68708;52.086;5.082;2023-04-01T01:41:59;26.70;;;12.82;;
77308;SDS011;68708;52.086;5.082;2023-04-01T01:47:00;23.27;;;12.48;;
77308;SDS011;68708;52.086;5.082;2023-04-01T01:49:29;30.60;;;13.30;;
77308;SDS011;68708;52.086;5.082;2023-04-01T01:52:01;38.42;;;14.07;;
77308;SDS011;68708;52.086;5.082;2023-04-01T01:54:29;26.48;;;12.77;;
77308;SDS011;68708;52.086;5.082;2023-04-01T01:57:00;28.48;;;13.45;;
77308;SDS011;68708;52.086;5.082;2023-04-01T01:59:32;27.10;;;12.50;;
77308;SDS011;68708;52.086;5.082;2023-04-01T02:02:02;35.88;;;12.98;;
77308;SDS011;68708;52.086;5.082;2023-04-01T02:04:34;30.35;;;11.55;;
77308;SDS011;68708;52.086;5.082;2023-04-01T02:07:07;28.00;;;11.90;;
77308;SDS011;68708;52.086;5.082;2023-04-01T02:09:39;33.72;;;12.68;;
77308;SDS011;68708;52.086;5.082;2023-04-01T02:12:08;31.17;;;11.55;;
77308;SDS011;68708;52.086;5.082;2023-04-01T02:14:39;32.50;;;11.40;;
77308;SDS011;68708;52.086;5.082;2023-04-01T02:17:12;34.78;;;12.07;;
77308;SDS011;68708;52.086;5.082;2023-04-01T02:19:43;28.42;;;11.20;;
77308;SDS011;68708;52.086;5.082;2023-04-01T02:22:18;22.35;;;11.52;;
77308;SDS011;68708;52.086;5.082;2023-04-01T02:24:50;28.52;;;10.65;;
77308;SDS011;68708;52.086;5.082;2023-04-01T02:27:21;29.63;;;11.73;;
77308;SDS011;68708;52.086;5.082;2023-04-01T02:29:49;29.58;;;11.50;;
77308;SDS011;68708;52.086;5.082;2023-04-01T02:32:17;26.20;;;10.93;;
77308;SDS011;68708;52.086;5.082;2023-04-01T02:34:47;26.67;;;10.75;;
77308;SDS011;68708;52.086;5.082;2023-04-01T02:37:17;26.10;;;9.50;;
77308;SDS011;68708;52.086;5.082;2023-04-01T02:39:45;19.58;;;8.98;;
77308;SDS011;68708;52.086;5.082;2023-04-01T02:42:14;21.27;;;9.32;;
77308;SDS011;68708;52.086;5.082;2023-04-01T02:44:42;20.38;;;8.90;;
77308;SDS011;68708;52.086;5.082;2023-04-01T02:47:10;17.52;;;9.20;;
77308;SDS011;68708;52.086;5.082;2023-04-01T02:49:38;25.05;;;9.73;;
77308;SDS011;68708;52.086;5.082;2023-04-01T02:52:07;19.88;;;9.15;;
77308;SDS011;68708;52.086;5.082;2023-04-01T02:54:37;24.58;;;10.30;;
77308;SDS011;68708;52.086;5.082;2023-04-01T02:57:05;23.17;;;10.05;;
77308;SDS011;68708;52.086;5.082;2023-04-01T02:59:34;21.08;;;9.70;;
77308;SDS011;68708;52.086;5.082;2023-04-01T03:02:02;19.20;;;9.27;;
77308;SDS011;68708;52.086;5.082;2023-04-01T03:04:30;21.10;;;9.73;;
77308;SDS011;68708;52.086;5.082;2023-04-01T03:06:58;20.85;;;9.80;;
77308;SDS011;68708;52.086;5.082;2023-04-01T03:09:26;24.13;;;10.43;;
77308;SDS011;68708;52.086;5.082;2023-04-01T03:11:57;20.63;;;10.65;;
77308;SDS011;68708;52.086;5.082;2023-04-01T03:14:25;24.20;;;11.05;;
77308;SDS011;68708;52.086;5.082;2023-04-01T03:16:53;21.40;;;11.45;;
77308;SDS011;68708;52.086;5.082;2023-04-01T03:19:21;26.25;;;12.52;;
77308;SDS011;68708;52.086;5.082;2023-04-01T03:21:49;26.73;;;13.63;;
77308;SDS011;68708;52.086;5.082;2023-04-01T03:24:17;25.13;;;11.95;;
77308;SDS011;68708;52.086;5.082;2023-04-01T03:26:45;27.13;;;13.02;;
77308;SDS011;68708;52.086;5.082;2023-04-01T03:29:14;25.40;;;12.35;;
77308;SDS011;68708;52.086;5.082;2023-04-01T03:31:42;26.90;;;12.25;;
77308;SDS011;68708;52.086;5.082;2023-04-01T03:34:11;34.83;;;14.73;;
77308;SDS011;68708;52.086;5.082;2023-04-01T03:36:39;35.17;;;15.13;;
77308;SDS011;68708;52.086;5.082;2023-04-01T03:39:07;33.10;;;16.08;;
77308;SDS011;68708;52.086;5.082;2023-04-01T03:41:35;35.00;;;15.55;;
77308;SDS011;68708;52.086;5.082;2023-04-01T03:44:04;29.75;;;14.85;;
77308;SDS011;68708;52.086;5.082;2023-04-01T03:46:34;31.08;;;13.02;;
77308;SDS011;68708;52.086;5.082;2023-04-01T03:49:02;32.65;;;15.07;;
77308;SDS011;68708;52.086;5.082;2023-04-01T03:51:37;29.02;;;13.75;;
77308;SDS011;68708;52.086;5.082;2023-04-01T03:54:06;29.38;;;14.00;;
77308;SDS011;68708;52.086;5.082;2023-04-01T03:56:34;30.23;;;13.85;;
77308;SDS011;68708;52.086;5.082;2023-04-01T03:59:02;29.38;;;14.50;;
77308;SDS011;68708;52.086;5.082;2023-04-01T04:01:32;27.35;;;13.82;;
77308;SDS011;68708;52.086;5.082;2023-04-01T04:04:01;27.45;;;13.63;;
77308;SDS011;68708;52.086;5.082;2023-04-01T04:06:30;28.42;;;13.60;;
77308;SDS011;68708;52.086;5.082;2023-04-01T04:09:00;26.85;;;14.32;;
77308;SDS011;68708;52.086;5.082;2023-04-01T04:11:28;29.35;;;14.75;;
77308;SDS011;68708;52.086;5.082;2023-04-01T04:13:58;24.40;;;12.98;;
77308;SDS011;68708;52.086;5.082;2023-04-01T04:16:26;24.95;;;12.63;;
77308;SDS011;68708;52.086;5.082;2023-04-01T04:18:54;24.90;;;12.88;;
77308;SDS011;68708;52.086;5.082;2023-04-01T04:21:24;28.15;;;12.38;;
77308;SDS011;68708;52.086;5.082;2023-04-01T04:23:52;21.13;;;11.07;;
77308;SDS011;68708;52.086;5.082;2023-04-01T04:26:20;19.60;;;11.30;;
77308;SDS011;68708;52.086;5.082;2023-04-01T04:28:48;25.10;;;12.50;;
77308;SDS011;68708;52.086;5.082;2023-04-01T04:31:18;23.50;;;11.65;;
77308;SDS011;68708;52.086;5.082;2023-04-01T04:33:47;21.88;;;11.75;;
77308;SDS011;68708;52.086;5.082;2023-04-01T04:36:15;22.25;;;11.50;;
77308;SDS011;68708;52.086;5.082;2023-04-01T04:38:44;21.35;;;12.25;;
77308;SDS011;68708;52.086;5.082;2023-04-01T04:41:13;28.42;;;12.13;;
77308;SDS011;68708;52.086;5.082;2023-04-01T04:43:48;22.33;;;11.68;;
77308;SDS011;68708;52.086;5.082;2023-04-01T04:46:18;23.60;;;12.77;;
77308;SDS011;68708;52.086;5.082;2023-04-01T04:48:47;24.67;;;12.93;;
77308;SDS011;68708;52.086;5.082;2023-04-01T04:51:15;24.25;;;12.68;;
77308;SDS011;68708;52.086;5.082;2023-04-01T04:53:46;25.13;;;13.82;;
77308;SDS011;68708;52.086;5.082;2023-04-01T04:56:17;28.70;;;14.18;;
77308;SDS011;68708;52.086;5.082;2023-04-01T04:58:46;31.30;;;14.30;;
77308;SDS011;68708;52.086;5.082;2023-04-01T05:01:17;27.00;;;14.48;;
77308;SDS011;68708;52.086;5.082;2023-04-01T05:03:46;25.65;;;13.43;;
77308;SDS011;68708;52.086;5.082;2023-04-01T05:06:14;26.48;;;14.05;;
77308;SDS011;68708;52.086;5.082;2023-04-01T05:08:44;26.10;;;14.05;;
77308;SDS011;68708;52.086;5.082;2023-04-01T05:11:14;29.52;;;14.70;;
77308;SDS011;68708;52.086;5.082;2023-04-01T05:13:44;26.90;;;14.13;;
77308;SDS011;68708;52.086;5.082;2023-04-01T05:16:13;24.77;;;13.10;;
77308;SDS011;68708;52.086;5.082;2023-04-01T05:18:42;26.33;;;13.32;;
77308;SDS011;68708;52.086;5.082;2023-04-01T05:21:11;23.27;;;13.70;;
77308;SDS011;68708;52.086;5.082;2023-04-01T05:23:40;22.23;;;14.27;;
77308;SDS011;68708;52.086;5.082;2023-04-01T05:26:12;27.20;;;14.05;;
77308;SDS011;68708;52.086;5.082;2023-04-01T05:28:41;23.08;;;14.35;;
77308;SDS011;68708;52.086;5.082;2023-04-01T05:31:09;25.95;;;14.68;;
77308;SDS011;68708;52.086;5.082;2023-04-01T05:33:38;25.23;;;13.93;;
77308;SDS011;68708;52.086;5.082;2023-04-01T05:36:07;22.80;;;13.73;;
77308;SDS011;68708;52.086;5.082;2023-04-01T05:38:36;26.98;;;13.30;;
77308;SDS011;68708;52.086;5.082;2023-04-01T05:41:04;24.20;;;13.05;;
77308;SDS011;68708;52.086;5.082;2023-04-01T05:43:35;29.30;;;14.48;;
77308;SDS011;68708;52.086;5.082;2023-04-01T05:46:03;20.60;;;12.88;;
77308;SDS011;68708;52.086;5.082;2023-04-01T05:48:32;27.42;;;13.00;;
77308;SDS011;68708;52.086;5.082;2023-04-01T05:51:01;25.98;;;13.82;;
77308;SDS011;68708;52.086;5.082;2023-04-01T05:53:29;22.40;;;12.82;;
77308;SDS011;68708;52.086;5.082;2023-04-01T05:55:57;23.02;;;12.82;;
77308;SDS011;68708;52.086;5.082;2023-04-01T05:58:29;26.37;;;13.27;;
77308;SDS011;68708;52.086;5.082;2023-04-01T06:01:02;22.65;;;13.38;;
77308;SDS011;68708;52.086;5.082;2023-04-01T06:03:34;27.80;;;13.35;;
77308;SDS011;68708;52.086;5.082;2023-04-01T06:06:03;25.33;;;14.05;;
77308;SDS011;68708;52.086;5.082;2023-04-01T06:08:32;23.33;;;14.07;;
77308;SDS011;68708;52.086;5.082;2023-04-01T06:11:06;25.63;;;13.82;;
77308;SDS011;68708;52.086;5.082;2023-04-01T06:13:48;25.38;;;13.82;;
77308;SDS011;68708;52.086;5.082;2023-04-01T06:16:35;23.45;;;13.63;;
77308;SDS011;68708;52.086;5.082;2023-04-01T06:19:18;24.63;;;14.20;;
77308;SDS011;68708;52.086;5.082;2023-04-01T06:25:16;27.52;;;13.43;;
77308;SDS011;68708;52.086;5.082;2023-04-01T06:27:56;27.08;;;14.95;;
77308;SDS011;68708;52.086;5.082;2023-04-01T06:30:36;28.23;;;14.15;;
77308;SDS011;68708;52.086;5.082;2023-04-01T06:33:17;29.73;;;15.98;;
77308;SDS011;68708;52.086;5.082;2023-04-01T06:36:00;35.78;;;17.45;;
77308;SDS011;68708;52.086;5.082;2023-04-01T06:38:50;36.22;;;18.27;;
77308;SDS011;68708;52.086;5.082;2023-04-01T06:41:36;41.28;;;19.83;;
77308;SDS011;68708;52.086;5.082;2023-04-01T06:44:29;37.03;;;20.60;;
77308;SDS011;68708;52.086;5.082;2023-04-01T06:47:09;42.40;;;22.33;;
77308;SDS011;68708;52.086;5.082;2023-04-01T06:49:51;47.77;;;23.70;;
77308;SDS011;68708;52.086;5.082;2023-04-01T06:52:25;54.40;;;26.42;;
77308;SDS011;68708;52.086;5.082;2023-04-01T06:54:59;49.63;;;26.17;;
77308;SDS011;68708;52.086;5.082;2023-04-01T06:57:40;55.28;;;28.08;;
77308;SDS011;68708;52.086;5.082;2023-04-01T07:02:45;51.33;;;25.65;;
77308;SDS011;68708;52.086;5.082;2023-04-01T07:05:21;46.35;;;25.23;;
77308;SDS011;68708;52.086;5.082;2023-04-01T07:07:52;46.50;;;23.65;;
77308;SDS011;68708;52.086;5.082;2023-04-01T07:10:25;38.40;;;20.83;;
77308;SDS011;68708;52.086;5.082;2023-04-01T07:13:00;48.42;;;22.83;;
77308;SDS011;68708;52.086;5.082;2023-04-01T07:15:33;46.75;;;22.42;;
77308;SDS011;68708;52.086;5.082;2023-04-01T07:18:07;44.88;;;22.17;;
77308;SDS011;68708;52.086;5.082;2023-04-01T07:20:41;43.10;;;22.42;;
77308;SDS011;68708;52.086;5.082;2023-04-01T07:23:11;44.53;;;21.80;;
77308;SDS011;68708;52.086;5.082;2023-04-01T07:25:47;47.28;;;20.33;;
77308;SDS011;68708;52.086;5.082;2023-04-01T07:28:19;47.17;;;21.00;;
77308;SDS011;68708;52.086;5.082;2023-04-01T07:30:50;36.47;;;19.70;;
77308;SDS011;68708;52.086;5.082;2023-04-01T07:33:28;37.72;;;18.42;;
77308;SDS011;68708;52.086;5.082;2023-04-01T07:36:08;40.28;;;18.20;;
77308;SDS011;68708;52.086;5.082;2023-04-01T07:38:45;39.17;;;18.80;;
77308;SDS011;68708;52.086;5.082;2023-04-01T07:41:26;39.53;;;19.20;;
77308;SDS011;68708;52.086;5.082;2023-04-01T07:44:05;44.33;;;19.38;;
77308;SDS011;68708;52.086;5.082;2023-04-01T07:46:42;38.25;;;18.85;;
77308;SDS011;68708;52.086;5.082;2023-04-01T07:49:22;38.67;;;18.70;;
77308;SDS011;68708;52.086;5.082;2023-04-01T07:52:00;38.47;;;18.65;;
77308;SDS011;68708;52.086;5.082;2023-04-01T07:54:36;39.85;;;18.15;;
77308;SDS011;68708;52.086;5.082;2023-04-01T07:57:15;42.00;;;18.50;;
77308;SDS011;68708;52.086;5.082;2023-04-01T07:59:50;42.47;;;19.45;;
77308;SDS011;68708;52.086;5.082;2023-04-01T08:02:28;41.65;;;18.30;;
77308;SDS011;68708;52.086;5.082;2023-04-01T08:05:09;37.28;;;18.40;;
77308;SDS011;68708;52.086;5.082;2023-04-01T08:07:49;35.35;;;18.83;;
77308;SDS011;68708;52.086;5.082;2023-04-01T08:10:28;37.35;;;16.45;;
77308;SDS011;68708;52.086;5.082;2023-04-01T08:13:05;38.00;;;18.20;;
77308;SDS011;68708;52.086;5.082;2023-04-01T08:15:44;34.50;;;17.92;;
77308;SDS011;68708;52.086;5.082;2023-04-01T08:18:20;36.28;;;17.20;;
77308;SDS011;68708;52.086;5.082;2023-04-01T08:20:58;33.53;;;16.77;;
77308;SDS011;68708;52.086;5.082;2023-04-01T08:23:30;35.35;;;16.98;;
77308;SDS011;68708;52.086;5.082;2023-04-01T08:26:04;34.45;;;15.43;;
77308;SDS011;68708;52.086;5.082;2023-04-01T08:28:39;33.78;;;16.58;;
77308;SDS011;68708;52.086;5.082;2023-04-01T08:31:12;40.92;;;17.55;;
77308;SDS011;68708;52.086;5.082;2023-04-01T08:33:43;32.72;;;16.30;;
77308;SDS011;68708;52.086;5.082;2023-04-01T08:36:15;33.88;;;16.88;;
77308;SDS011;68708;52.086;5.082;2023-04-01T08:38:49;31.50;;;16.65;;
77308;SDS011;68708;52.086;5.082;2023-04-01T08:41:37;35.33;;;17.50;;
77308;SDS011;68708;52.086;5.082;2023-04-01T08:44:45;37.10;;;16.85;;
77308;SDS011;68708;52.086;5.082;2023-04-01T08:47:35;35.17;;;16.90;;
77308;SDS011;68708;52.086;5.082;2023-04-01T08:53:18;29.55;;;16.73;;
77308;SDS011;68708;52.086;5.082;2023-04-01T08:56:00;30.63;;;15.48;;
77308;SDS011;68708;52.086;5.082;2023-04-01T09:01:46;30.63;;;14.82;;
77308;SDS011;68708;52.086;5.082;2023-04-01T09:04:30;32.72;;;16.25;;
77308;SDS011;68708;52.086;5.082;2023-04-01T09:07:10;31.80;;;15.48;;
77308;SDS011;68708;52.086;5.082;2023-04-01T09:13:16;33.95;;;17.15;;
77308;SDS011;68708;52.086;5.082;2023-04-01T09:16:10;32.00;;;16.02;;
77308;SDS011;68708;52.086;5.082;2023-04-01T09:21:31;34.80;;;16.70;;
77308;SDS011;68708;52.086;5.082;2023-04-01T09:27:05;27.50;;;15.07;;
77308;SDS011;68708;52.086;5.082;2023-04-01T09:30:06;26.10;;;14.57;;
77308;SDS011;68708;52.086;5.082;2023-04-01T09:36:18;26.17;;;14.48;;
77308;SDS011;68708;52.086;5.082;2023-04-01T09:38:56;22.40;;;13.63;;
77308;SDS011;68708;52.086;5.082;2023-04-01T09:41:28;25.20;;;14.23;;
77308;SDS011;68708;52.086;5.082;2023-04-01T09:44:00;23.23;;;13.75;;
77308;SDS011;68708;52.086;5.082;2023-04-01T09:46:35;23.38;;;14.52;;
77308;SDS011;68708;52.086;5.082;2023-04-01T09:52:10;24.83;;;13.50;;
77308;SDS011;68708;52.086;5.082;2023-04-01T09:54:54;22.52;;;13.52;;
77308;SDS011;68708;52.086;5.082;2023-04-01T10:00:55;22.40;;;12.00;;
77308;SDS011;68708;52.086;5.082;2023-04-01T10:10:15;15.87;;;10.17;;
77308;SDS011;68708;52.086;5.082;2023-04-01T10:13:18;16.90;;;10.07;;
77308;SDS011;68708;52.086;5.082;2023-04-01T10:16:17;18.00;;;10.98;;
77308;SDS011;68708;52.086;5.082;2023-04-01T10:19:03;17.75;;;10.85;;
77308;SDS011;68708;52.086;5.082;2023-04-01T10:25:05;15.23;;;9.93;;
77308;SDS011;68708;52.086;5.082;2023-04-01T10:28:06;17.15;;;11.75;;
77308;SDS011;68708;52.086;5.082;2023-04-01T10:33:52;15.00;;;10.60;;
77308;SDS011;68708;52.086;5.082;2023-04-01T10:36:41;16.67;;;10.45;;
77308;SDS011;68708;52.086;5.082;2023-04-01T10:39:20;14.23;;;10.60;;
77308;SDS011;68708;52.086;5.082;2023-04-01T10:45:24;17.67;;;10.98;;
77308;SDS011;68708;52.086;5.082;2023-04-01T10:48:23;16.60;;;11.30;;
77308;SDS011;68708;52.086;5.082;2023-04-01T10:51:16;19.25;;;11.40;;
77308;SDS011;68708;52.086;5.082;2023-04-01T10:53:59;15.73;;;10.63;;
77308;SDS011;68708;52.086;5.082;2023-04-01T10:56:48;16.58;;;10.70;;
77308;SDS011;68708;52.086;5.082;2023-04-01T11:09:05;11.85;;;6.68;;
77308;SDS011;68708;52.086;5.082;2023-04-01T11:12:06;10.38;;;7.22;;
77308;SDS011;68708;52.086;5.082;2023-04-01T11:15:01;9.82;;;7.32;;
77308;SDS011;68708;52.086;5.082;2023-04-01T11:18:07;12.55;;;7.15;;
77308;SDS011;68708;52.086;5.082;2023-04-01T11:24:03;8.43;;;6.43;;
77308;SDS011;68708;52.086;5.082;2023-04-01T11:26:50;11.60;;;7.03;;
77308;SDS011;68708;52.086;5.082;2023-04-01T11:32:31;11.43;;;7.93;;
77308;SDS011;68708;52.086;5.082;2023-04-01T11:35:19;13.60;;;7.80;;
77308;SDS011;68708;52.086;5.082;2023-04-01T11:37:55;10.05;;;7.82;;
77308;SDS011;68708;52.086;5.082;2023-04-01T11:40:31;13.07;;;8.35;;
77308;SDS011;68708;52.086;5.082;2023-04-01T11:43:06;10.23;;;7.72;;
77308;SDS011;68708;52.086;5.082;2023-04-01T11:45:46;10.50;;;7.88;;
77308;SDS011;68708;52.086;5.082;2023-04-01T11:48:24;13.45;;;7.78;;
77308;SDS011;68708;52.086;5.082;2023-04-01T11:51:17;12.93;;;7.40;;
77308;SDS011;68708;52.086;5.082;2023-04-01T11:54:12;11.02;;;7.32;;
77308;SDS011;68708;52.086;5.082;2023-04-01T11:56:58;10.32;;;7.28;;
77308;SDS011;68708;52.086;5.082;2023-04-01T11:59:49;11.18;;;8.35;;
77308;SDS011;68708;52.086;5.082;2023-04-01T12:02:31;13.52;;;8.27;;
77308;SDS011;68708;52.086;5.082;2023-04-01T12:05:16;15.40;;;8.65;;
77308;SDS011;68708;52.086;5.082;2023-04-01T12:08:02;12.05;;;8.52;;
77308;SDS011;68708;52.086;5.082;2023-04-01T12:10:40;15.30;;;10.80;;
77308;SDS011;68708;52.086;5.082;2023-04-01T12:13:19;17.40;;;11.48;;
77308;SDS011;68708;52.086;5.082;2023-04-01T12:16:03;17.35;;;11.82;;
77308;SDS011;68708;52.086;5.082;2023-04-01T12:18:41;19.77;;;12.88;;
77308;SDS011;68708;52.086;5.082;2023-04-01T12:21:17;19.23;;;12.65;;
77308;SDS011;68708;52.086;5.082;2023-04-01T12:23:57;18.48;;;12.48;;
77308;SDS011;68708;52.086;5.082;2023-04-01T12:29:44;17.45;;;11.85;;
77308;SDS011;68708;52.086;5.082;2023-04-01T12:32:34;18.58;;;12.80;;
77308;SDS011;68708;52.086;5.082;2023-04-01T12:35:18;18.83;;;12.02;;
77308;SDS011;68708;52.086;5.082;2023-04-01T12:37:55;19.77;;;12.65;;
77308;SDS011;68708;52.086;5.082;2023-04-01T12:40:45;18.98;;;11.95;;
77308;SDS011;68708;52.086;5.082;2023-04-01T12:43:45;16.33;;;11.63;;
77308;SDS011;68708;52.086;5.082;2023-04-01T12:46:42;15.35;;;11.43;;
77308;SDS011;68708;52.086;5.082;2023-04-01T12:49:31;18.23;;;11.82;;
77308;SDS011;68708;52.086;5.082;2023-04-01T12:52:15;18.60;;;12.82;;
77308;SDS011;68708;52.086;5.082;2023-04-01T12:55:06;17.90;;;11.67;;
77308;SDS011;68708;52.086;5.082;2023-04-01T13:01:13;20.58;;;13.10;;
77308;SDS011;68708;52.086;5.082;2023-04-01T13:04:05;16.48;;;10.73;;
77308;SDS011;68708;52.086;5.082;2023-04-01T13:06:51;14.57;;;9.95;;
77308;SDS011;68708;52.086;5.082;2023-04-01T13:09:32;12.23;;;9.13;;
77308;SDS011;68708;52.086;5.082;2023-04-01T13:12:21;13.82;;;8.88;;
77308;SDS011;68708;52.086;5.082;2023-04-01T13:18:03;8.95;;;6.07;;
77308;SDS011;68708;52.086;5.082;2023-04-01T13:20:43;10.52;;;7.50;;
77308;SDS011;68708;52.086;5.082;2023-04-01T13:23:19;12.30;;;8.02;;
77308;SDS011;68708;52.086;5.082;2023-04-01T13:26:00;10.70;;;7.57;;
77308;SDS011;68708;52.086;5.082;2023-04-01T13:28:39;13.63;;;8.75;;
77308;SDS011;68708;52.086;5.082;2023-04-01T13:31:14;13.48;;;8.85;;
77308;SDS011;68708;52.086;5.082;2023-04-01T13:34:06;13.02;;;8.93;;
77308;SDS011;68708;52.086;5.082;2023-04-01T13:36:47;16.17;;;8.40;;
77308;SDS011;68708;52.086;5.082;2023-04-01T13:39:30;11.73;;;8.45;;
77308;SDS011;68708;52.086;5.082;2023-04-01T13:42:13;10.15;;;8.10;;
77308;SDS011;68708;52.086;5.082;2023-04-01T13:44:46;11.68;;;7.63;;
77308;SDS011;68708;52.086;5.082;2023-04-01T13:50:22;11.23;;;7.47;;
77308;SDS011;68708;52.086;5.082;2023-04-01T13:53:09;9.18;;;7.55;;
77308;SDS011;68708;52.086;5.082;2023-04-01T13:55:54;10.38;;;7.03;;
77308;SDS011;68708;52.086;5.082;2023-04-01T13:58:34;10.98;;;7.35;;
77308;SDS011;68708;52.086;5.082;2023-04-01T14:01:13;12.65;;;7.55;;
77308;SDS011;68708;52.086;5.082;2023-04-01T14:07:03;10.32;;;8.88;;
77308;SDS011;68708;52.086;5.082;2023-04-01T14:09:45;11.80;;;9.02;;
77308;SDS011;68708;52.086;5.082;2023-04-01T14:12:34;12.48;;;8.15;;
77308;SDS011;68708;52.086;5.082;2023-04-01T14:15:14;11.40;;;8.35;;
77308;SDS011;68708;52.086;5.082;2023-04-01T14:18:08;12.75;;;8.98;;
77308;SDS011;68708;52.086;5.082;2023-04-01T14:20:45;11.00;;;8.55;;
77308;SDS011;68708;52.086;5.082;2023-04-01T14:26:21;13.35;;;10.48;;
77308;SDS011;68708;52.086;5.082;2023-04-01T14:28:57;12.98;;;9.75;;
77308;SDS011;68708;52.086;5.082;2023-04-01T14:31:43;15.18;;;10.85;;
77308;SDS011;68708;52.086;5.082;2023-04-01T14:34:21;14.70;;;11.88;;
77308;SDS011;68708;52.086;5.082;2023-04-01T14:37:01;20.10;;;16.33;;
77308;SDS011;68708;52.086;5.082;2023-04-01T14:40:03;16.00;;;10.70;;
77308;SDS011;68708;52.086;5.082;2023-04-01T14:42:47;17.00;;;11.65;;
77308;SDS011;68708;52.086;5.082;2023-04-01T14:45:41;15.23;;;11.35;;
77308;SDS011;68708;52.086;5.082;2023-04-01T14:48:21;21.63;;;13.18;;
77308;SDS011;68708;52.086;5.082;2023-04-01T14:50:57;17.58;;;11.68;;
77308;SDS011;68708;52.086;5.082;2023-04-01T14:53:36;15.63;;;10.75;;
77308;SDS011;68708;52.086;5.082;2023-04-01T14:56:09;13.70;;;10.13;;
77308;SDS011;68708;52.086;5.082;2023-04-01T14:58:44;14.68;;;10.73;;
77308;SDS011;68708;52.086;5.082;2023-04-01T15:01:17;23.98;;;11.00;;
77308;SDS011;68708;52.086;5.082;2023-04-01T15:03:58;18.17;;;11.55;;
77308;SDS011;68708;52.086;5.082;2023-04-01T15:06:55;18.77;;;13.65;;
77308;SDS011;68708;52.086;5.082;2023-04-01T15:09:32;18.45;;;14.02;;
77308;SDS011;68708;52.086;5.082;2023-04-01T15:12:11;30.30;;;21.17;;
77308;SDS011;68708;52.086;5.082;2023-04-01T15:17:58;18.33;;;11.65;;
77308;SDS011;68708;52.086;5.082;2023-04-01T15:20:40;29.30;;;23.02;;
77308;SDS011;68708;52.086;5.082;2023-04-01T15:23:27;17.08;;;13.93;;
77308;SDS011;68708;52.086;5.082;2023-04-01T15:26:09;28.60;;;22.45;;
77308;SDS011;68708;52.086;5.082;2023-04-01T15:28:47;20.13;;;15.60;;
77308;SDS011;68708;52.086;5.082;2023-04-01T15:31:27;17.85;;;12.95;;
77308;SDS011;68708;52.086;5.082;2023-04-01T15:36:38;17.65;;;13.23;;
77308;SDS011;68708;52.086;5.082;2023-04-01T15:39:13;15.38;;;10.32;;
77308;SDS011;68708;52.086;5.082;2023-04-01T15:41:48;15.88;;;12.77;;
77308;SDS011;68708;52.086;5.082;2023-04-01T15:44:33;15.20;;;10.68;;
77308;SDS011;68708;52.086;5.082;2023-04-01T15:47:27;17.13;;;12.93;;
77308;SDS011;68708;52.086;5.082;2023-04-01T15:50:21;14.40;;;9.82;;
77308;SDS011;68708;52.086;5.082;2023-04-01T15:53:18;14.32;;;10.85;;
77308;SDS011;68708;52.086;5.082;2023-04-01T15:56:06;15.00;;;11.18;;
77308;SDS011;68708;52.086;5.082;2023-04-01T15:58:48;12.38;;;9.88;;
77308;SDS011;68708;52.086;5.082;2023-04-01T16:01:29;15.65;;;9.43;;
77308;SDS011;68708;52.086;5.082;2023-04-01T16:04:10;12.90;;;9.82;;
77308;SDS011;68708;52.086;5.082;2023-04-01T16:07:01;12.50;;;9.50;;
77308;SDS011;68708;52.086;5.082;2023-04-01T16:09:39;13.00;;;10.55;;
77308;SDS011;68708;52.086;5.082;2023-04-01T16:12:18;15.30;;;9.77;;
77308;SDS011;68708;52.086;5.082;2023-04-01T16:14:55;13.70;;;9.23;;
77308;SDS011;68708;52.086;5.082;2023-04-01T16:17:53;12.70;;;9.75;;
77308;SDS011;68708;52.086;5.082;2023-04-01T16:20:40;11.00;;;8.73;;
77308;SDS011;68708;52.086;5.082;2023-04-01T16:23:16;10.98;;;8.68;;
77308;SDS011;68708;52.086;5.082;2023-04-01T16:25:52;15.82;;;10.10;;
77308;SDS011;68708;52.086;5.082;2023-04-01T16:28:27;12.95;;;9.30;;
77308;SDS011;68708;52.086;5.082;2023-04-01T16:31:03;13.20;;;8.98;;
77308;SDS011;68708;52.086;5.082;2023-04-01T16:36:24;12.68;;;8.48;;
77308;SDS011;68708;52.086;5.082;2023-04-01T16:39:05;11.18;;;8.45;;
77308;SDS011;68708;52.086;5.082;2023-04-01T16:41:47;11.10;;;8.23;;
77308;SDS011;68708;52.086;5.082;2023-04-01T16:44:17;10.65;;;8.65;;
77308;SDS011;68708;52.086;5.082;2023-04-01T16:46:49;9.80;;;7.20;;
77308;SDS011;68708;52.086;5.082;2023-04-01T16:49:25;8.65;;;7.10;;
77308;SDS011;68708;52.086;5.082;2023-04-01T16:52:03;6.15;;;4.57;;
77308;SDS011;68708;52.086;5.082;2023-04-01T16:54:42;7.35;;;4.43;;
77308;SDS011;68708;52.086;5.082;2023-04-01T16:57:17;5.60;;;4.10;;
77308;SDS011;68708;52.086;5.082;2023-04-01T16:59:53;4.80;;;3.95;;